USTS Kennedy — KVMU — position and weather

sailwx.info

Track history (hours):
 
Tides and Currents Weather Stations Pressure Air Temp Water Temp Dewpoint Dewpoint Depression Visibility Wind Speed Wind Dir Waves Ship Positions

USTS Kennedy (United States)

Training ship of Massachusetts Maritime Academy. Ex Cape Bon, ex Velma Lykes, ex Enterprise.

Ship's website: http://www.maritime.edu/

Owner: Massachusetts Maritime Academy, Buzzards Bay, MA. More information available from US FCC via Universal Licensing System and Coast Guard Vessel Documentation Center.

Last reported at 2015-Aug-27 10:28 UTC. Time now 2015-Aug-31 23:53 UTC.
Position N 41°50' W 070°28'.

Type: Ship. MMSI: 338919000.

Date/timePositionNaut miles runAvg speedWind from/ knotsBaromVisibWave heightAir tempDewpointWater temp
2015-Aug-27 10:28N 41°50' W 070°28'2 2.3
2015-Aug-27 09:32N 41°47' W 070°29'6 4.9
2015-Aug-27 08:15N 41°45' W 070°36'7 9.8
2015-Aug-27 07:33N 41°39' W 070°41'10 9.9
2015-Aug-27 06:34N 41°31' W 070°49'1414.1
2015-Aug-27 05:33N 41°23' W 071°04'1413.9
2015-Aug-27 04:34N 41°12' W 071°16'1414.2
2015-Aug-27 03:34N 41°01' W 071°27'1111.4
2015-Aug-27 02:33N 41°05' W 071°41'1414.0
2015-Aug-27 01:34N 41°12' W 071°57'1313.4
2015-Aug-27 00:34N 41°12' W 072°14'1313.3
2015-Aug-26 23:33N 41°08' W 072°31'1413.9
2015-Aug-26 22:34N 41°05' W 072°49'1414.1
2015-Aug-26 21:33N 41°02' W 073°08'1514.6
2015-Aug-26 20:33N 40°59' W 073°27'2110.6
2015-Aug-26 18:33N 40°48' W 073°50'5 5.5
2015-Aug-26 17:33N 40°46' W 073°57'6 5.6
2015-Aug-26 16:33N 40°42' W 074°02'7 7.1
2015-Aug-26 15:33N 40°35' W 074°02'7 6.9
2015-Aug-26 14:32N 40°29' W 073°56'8 8.6
2015-Aug-26 13:33N 40°27' W 073°45'5 4.6
2015-Aug-26 12:33N 40°27' W 073°39'5 4.7
2015-Aug-26 11:33N 40°28' W 073°33'4 4.3
2015-Aug-26 10:33N 40°28' W 073°27'6 6.1
2015-Aug-26 09:33N 40°29' W 073°19'7 7.0
2015-Aug-26 08:33N 40°29' W 073°10'7 6.8
2015-Aug-26 07:33N 40°30' W 073°01'7 6.6
2015-Aug-26 06:33N 40°30' W 072°52'6 6.2
2015-Aug-26 05:33N 40°30' W 072°44'6 6.3
2015-Aug-26 04:33N 40°30' W 072°36'6 6.1
2015-Aug-26 03:33N 40°31' W 072°28'6 6.1
2015-Aug-26 02:33N 40°31' W 072°20'6 6.2
2015-Aug-26 01:33N 40°31' W 072°12'6 6.3
2015-Aug-26 00:33N 40°31' W 072°03'6 6.2
2015-Aug-25 23:32N 40°31' W 071°55'6 6.2
2015-Aug-25 22:33N 40°31' W 071°47'7 6.9
2015-Aug-25 21:33N 40°32' W 071°38'7 7.0
2015-Aug-25 20:33N 40°32' W 071°29'6 6.0
2015-Aug-25 19:33N 40°33' W 071°21'7 6.6
2015-Aug-25 18:33N 40°40' W 071°20'7 6.9
2015-Aug-25 17:33N 40°47' W 071°21'9 9.0
2015-Aug-25 16:33N 40°56' W 071°22'1312.6
2015-Aug-25 15:34N 41°08' W 071°22'7 7.3
2015-Aug-25 14:34N 41°14' W 071°16'7 6.8
2015-Aug-25 13:34N 41°17' W 071°08'1010.0
2015-Aug-25 12:33N 41°26' W 071°02'1413.8
2015-Aug-25 11:33N 41°33' W 070°46'1110.8
2015-Aug-25 10:33N 41°43' W 070°39'2 1.9
2015-Aug-25 09:31N 41°44' W 070°37'0 0.0
2015-Aug-25 08:31N 41°44' W 070°37'0 0.0
2015-Aug-25 07:25N 41°44' W 070°37'0 0.0
2015-Aug-25 06:25N 41°44' W 070°37'0 0.0
2015-Aug-25 04:31N 41°44' W 070°37'0 0.0
2015-Aug-25 03:31N 41°44' W 070°37'0 0.0
2015-Aug-25 02:31N 41°44' W 070°37'0 0.0
2015-Aug-25 01:31N 41°44' W 070°37'0 0.0
2015-Aug-25 00:22N 41°44' W 070°37'0 0.0
2015-Aug-24 23:25N 41°44' W 070°37'0 0.0
2015-Aug-24 22:28N 41°44' W 070°37'0 0.0
2015-Aug-24 21:31N 41°44' W 070°37'0 0.0
2015-Aug-24 20:28N 41°44' W 070°37'0 0.0
2015-Aug-24 19:19N 41°44' W 070°37'0 0.0
2015-Aug-24 18:25N 41°44' W 070°37'0 0.0
2015-Aug-24 17:31N 41°44' W 070°37'24 1.8
2015-Aug-24 04:24N 42°08' W 070°32'20 6.6
2015-Aug-24 01:18N 42°23' W 070°50'6 8.1
2015-Aug-24 00:32N 42°20' W 070°57'1 0.2
2015-Aug-23 19:12N 42°20' W 070°58'0 0.0
2015-Aug-23 18:30N 42°20' W 070°58'0 0.0
2015-Aug-23 17:33N 42°20' W 070°58'0 0.1
2015-Aug-23 16:33N 42°20' W 070°58'3 0.6
2015-Aug-23 10:28N 42°23' W 070°55'7610.6
2015-Aug-23 03:15N 41°39' W 069°30'3211.2
2015-Aug-23 00:23N 41°10' W 069°12'911.1
2015-Aug-22 23:33N 41°02' W 069°07'1311.7
2015-Aug-22 22:26N 40°50' W 068°59'3311.5
2015-Aug-22 19:33N 40°18' W 068°50'1212.3
2015-Aug-22 18:33N 40°13' W 069°05'3 2.4
2015-Aug-22 17:29N 40°15' W 069°06'1415.4
2015-Aug-22 16:33N 40°17' W 069°25'1919.6
2015-Aug-22 15:33N 40°18' W 069°50'2019.7
2015-Aug-22 14:33N 40°18' W 070°16'2019.6
2015-Aug-22 13:34N 40°17' W 070°42'1313.2
2015-Aug-22 12:34N 40°18' W 070°59'2 2.3
2015-Aug-22 11:34N 40°17' W 070°56'7 6.9
2015-Aug-22 10:34N 40°17' W 070°47'1 0.9
2015-Aug-22 09:33N 40°17' W 070°48'6 6.4
2015-Aug-22 08:33N 40°17' W 070°56'5 4.6
2015-Aug-22 07:33N 40°21' W 071°00'7 6.6
2015-Aug-22 06:34N 40°27' W 071°01'6 6.5
2015-Aug-22 05:33N 40°34' W 071°02'7 6.6
2015-Aug-22 04:34N 40°40' W 071°02'6 6.0
2015-Aug-22 03:34N 40°46' W 071°02'6 6.4
2015-Aug-22 02:34N 40°53' W 071°03'6 6.3
2015-Aug-22 01:34N 40°59' W 071°03'6 6.2
2015-Aug-22 00:34N 41°05' W 071°03'7 6.2
2015-Aug-21 23:28N 41°12' W 071°03'8 8.6
2015-Aug-21 22:33N 41°20' W 071°03'9 8.6
2015-Aug-21 21:32N 41°28' W 070°58'1313.7
2015-Aug-21 20:33N 41°35' W 070°43'9 9.3
2015-Aug-21 19:33N 41°44' W 070°38'0 0.0
2015-Aug-21 04:24N 41°44' W 070°38'0 0.0
2015-Aug-21 03:15N 41°44' W 070°38'0 0.0
2015-Aug-21 02:24N 41°44' W 070°38'0 0.0
2015-Aug-21 01:21N 41°44' W 070°38'0 0.0
2015-Aug-21 00:18N 41°44' W 070°38'0 0.0
2015-Aug-20 23:33N 41°44' W 070°38'0 0.0
2015-Aug-20 22:24N 41°44' W 070°38'0 0.0
2015-Aug-20 21:33N 41°44' W 070°38'0 0.0
2015-Aug-20 20:33N 41°44' W 070°38'0 0.0
2015-Aug-20 18:33N 41°44' W 070°38'0 0.0
2015-Aug-20 17:21N 41°44' W 070°38'0 0.0
2015-Aug-20 16:24N 41°44' W 070°38'0 0.0
2015-Aug-20 15:30N 41°44' W 070°38'0 0.0
2015-Aug-20 14:27N 41°44' W 070°38'0 0.0
2015-Aug-20 13:24N 41°44' W 070°38'0 0.0
2015-Aug-19 05:26N 41°44' W 070°38'0 0.0
2015-Aug-19 04:32N 41°44' W 070°38'0 0.0
2015-Aug-19 03:17N 41°44' W 070°38'0 0.0
2015-Aug-19 02:32N 41°44' W 070°38'0 0.0
2015-Aug-19 01:29N 41°44' W 070°38'0 0.0
2015-Aug-19 00:32N 41°44' W 070°38'0 0.0
2015-Aug-18 23:27N 41°44' W 070°38'0 0.0
2015-Aug-18 22:31N 41°44' W 070°38'0 0.0
2015-Aug-18 21:23N 41°44' W 070°38'  
Track history (hours):
 
Tides and Currents Weather Stations Pressure Air Temp Water Temp Dewpoint Dewpoint Depression Visibility Wind Speed Wind Dir Waves Ship Positions

USTS Kennedy (United States)

Training ship of Massachusetts Maritime Academy. Ex Cape Bon, ex Velma Lykes, ex Enterprise.

Ship's website: http://www.maritime.edu/

Owner: Massachusetts Maritime Academy, Buzzards Bay, MA. More information available from US FCC via Universal Licensing System and Coast Guard Vessel Documentation Center.

Last reported at 2015-Aug-27 10:28 UTC. Time now 2015-Aug-31 23:53 UTC.
Position N 41°50' W 070°28'.

Type: Ship. MMSI: 338919000.

Date/timePositionNaut miles runAvg speedWind from/ knotsBaromVisibWave heightAir tempDewpointWater temp
2015-Aug-27 10:28N 41°50' W 070°28'2 2.3
2015-Aug-27 09:32N 41°47' W 070°29'6 4.9
2015-Aug-27 08:15N 41°45' W 070°36'7 9.8
2015-Aug-27 07:33N 41°39' W 070°41'10 9.9
2015-Aug-27 06:34N 41°31' W 070°49'1414.1
2015-Aug-27 05:33N 41°23' W 071°04'1413.9
2015-Aug-27 04:34N 41°12' W 071°16'1414.2
2015-Aug-27 03:34N 41°01' W 071°27'1111.4
2015-Aug-27 02:33N 41°05' W 071°41'1414.0
2015-Aug-27 01:34N 41°12' W 071°57'1313.4
2015-Aug-27 00:34N 41°12' W 072°14'1313.3
2015-Aug-26 23:33N 41°08' W 072°31'1413.9
2015-Aug-26 22:34N 41°05' W 072°49'1414.1
2015-Aug-26 21:33N 41°02' W 073°08'1514.6
2015-Aug-26 20:33N 40°59' W 073°27'2110.6
2015-Aug-26 18:33N 40°48' W 073°50'5 5.5
2015-Aug-26 17:33N 40°46' W 073°57'6 5.6
2015-Aug-26 16:33N 40°42' W 074°02'7 7.1
2015-Aug-26 15:33N 40°35' W 074°02'7 6.9
2015-Aug-26 14:32N 40°29' W 073°56'8 8.6
2015-Aug-26 13:33N 40°27' W 073°45'5 4.6
2015-Aug-26 12:33N 40°27' W 073°39'5 4.7
2015-Aug-26 11:33N 40°28' W 073°33'4 4.3
2015-Aug-26 10:33N 40°28' W 073°27'6 6.1
2015-Aug-26 09:33N 40°29' W 073°19'7 7.0
2015-Aug-26 08:33N 40°29' W 073°10'7 6.8
2015-Aug-26 07:33N 40°30' W 073°01'7 6.6
2015-Aug-26 06:33N 40°30' W 072°52'6 6.2
2015-Aug-26 05:33N 40°30' W 072°44'6 6.3
2015-Aug-26 04:33N 40°30' W 072°36'6 6.1
2015-Aug-26 03:33N 40°31' W 072°28'6 6.1
2015-Aug-26 02:33N 40°31' W 072°20'6 6.2
2015-Aug-26 01:33N 40°31' W 072°12'6 6.3
2015-Aug-26 00:33N 40°31' W 072°03'6 6.2
2015-Aug-25 23:32N 40°31' W 071°55'6 6.2
2015-Aug-25 22:33N 40°31' W 071°47'7 6.9
2015-Aug-25 21:33N 40°32' W 071°38'7 7.0
2015-Aug-25 20:33N 40°32' W 071°29'6 6.0
2015-Aug-25 19:33N 40°33' W 071°21'7 6.6
2015-Aug-25 18:33N 40°40' W 071°20'7 6.9
2015-Aug-25 17:33N 40°47' W 071°21'9 9.0
2015-Aug-25 16:33N 40°56' W 071°22'1312.6
2015-Aug-25 15:34N 41°08' W 071°22'7 7.3
2015-Aug-25 14:34N 41°14' W 071°16'7 6.8
2015-Aug-25 13:34N 41°17' W 071°08'1010.0
2015-Aug-25 12:33N 41°26' W 071°02'1413.8
2015-Aug-25 11:33N 41°33' W 070°46'1110.8
2015-Aug-25 10:33N 41°43' W 070°39'2 1.9
2015-Aug-25 09:31N 41°44' W 070°37'0 0.0
2015-Aug-25 08:31N 41°44' W 070°37'0 0.0
2015-Aug-25 07:25N 41°44' W 070°37'0 0.0
2015-Aug-25 06:25N 41°44' W 070°37'0 0.0
2015-Aug-25 04:31N 41°44' W 070°37'0 0.0
2015-Aug-25 03:31N 41°44' W 070°37'0 0.0
2015-Aug-25 02:31N 41°44' W 070°37'0 0.0
2015-Aug-25 01:31N 41°44' W 070°37'0 0.0
2015-Aug-25 00:22N 41°44' W 070°37'0 0.0
2015-Aug-24 23:25N 41°44' W 070°37'0 0.0
2015-Aug-24 22:28N 41°44' W 070°37'0 0.0
2015-Aug-24 21:31N 41°44' W 070°37'0 0.0
2015-Aug-24 20:28N 41°44' W 070°37'0 0.0
2015-Aug-24 19:19N 41°44' W 070°37'0 0.0
2015-Aug-24 18:25N 41°44' W 070°37'0 0.0
2015-Aug-24 17:31N 41°44' W 070°37'24 1.8
2015-Aug-24 04:24N 42°08' W 070°32'20 6.6
2015-Aug-24 01:18N 42°23' W 070°50'6 8.1
2015-Aug-24 00:32N 42°20' W 070°57'1 0.2
2015-Aug-23 19:12N 42°20' W 070°58'0 0.0
2015-Aug-23 18:30N 42°20' W 070°58'0 0.0
2015-Aug-23 17:33N 42°20' W 070°58'0 0.1
2015-Aug-23 16:33N 42°20' W 070°58'3 0.6
2015-Aug-23 10:28N 42°23' W 070°55'7610.6
2015-Aug-23 03:15N 41°39' W 069°30'3211.2
2015-Aug-23 00:23N 41°10' W 069°12'911.1
2015-Aug-22 23:33N 41°02' W 069°07'1311.7
2015-Aug-22 22:26N 40°50' W 068°59'3311.5
2015-Aug-22 19:33N 40°18' W 068°50'1212.3
2015-Aug-22 18:33N 40°13' W 069°05'3 2.4
2015-Aug-22 17:29N 40°15' W 069°06'1415.4
2015-Aug-22 16:33N 40°17' W 069°25'1919.6
2015-Aug-22 15:33N 40°18' W 069°50'2019.7
2015-Aug-22 14:33N 40°18' W 070°16'2019.6
2015-Aug-22 13:34N 40°17' W 070°42'1313.2
2015-Aug-22 12:34N 40°18' W 070°59'2 2.3
2015-Aug-22 11:34N 40°17' W 070°56'7 6.9
2015-Aug-22 10:34N 40°17' W 070°47'1 0.9
2015-Aug-22 09:33N 40°17' W 070°48'6 6.4
2015-Aug-22 08:33N 40°17' W 070°56'5 4.6
2015-Aug-22 07:33N 40°21' W 071°00'7 6.6
2015-Aug-22 06:34N 40°27' W 071°01'6 6.5
2015-Aug-22 05:33N 40°34' W 071°02'7 6.6
2015-Aug-22 04:34N 40°40' W 071°02'6 6.0
2015-Aug-22 03:34N 40°46' W 071°02'6 6.4
2015-Aug-22 02:34N 40°53' W 071°03'6 6.3
2015-Aug-22 01:34N 40°59' W 071°03'6 6.2
2015-Aug-22 00:34N 41°05' W 071°03'7 6.2
2015-Aug-21 23:28N 41°12' W 071°03'8 8.6
2015-Aug-21 22:33N 41°20' W 071°03'9 8.6
2015-Aug-21 21:32N 41°28' W 070°58'1313.7
2015-Aug-21 20:33N 41°35' W 070°43'9 9.3
2015-Aug-21 19:33N 41°44' W 070°38'0 0.0
2015-Aug-21 04:24N 41°44' W 070°38'0 0.0
2015-Aug-21 03:15N 41°44' W 070°38'0 0.0
2015-Aug-21 02:24N 41°44' W 070°38'0 0.0
2015-Aug-21 01:21N 41°44' W 070°38'0 0.0
2015-Aug-21 00:18N 41°44' W 070°38'0 0.0
2015-Aug-20 23:33N 41°44' W 070°38'0 0.0
2015-Aug-20 22:24N 41°44' W 070°38'0 0.0
2015-Aug-20 21:33N 41°44' W 070°38'0 0.0
2015-Aug-20 20:33N 41°44' W 070°38'0 0.0
2015-Aug-20 18:33N 41°44' W 070°38'0 0.0
2015-Aug-20 17:21N 41°44' W 070°38'0 0.0
2015-Aug-20 16:24N 41°44' W 070°38'0 0.0
2015-Aug-20 15:30N 41°44' W 070°38'0 0.0
2015-Aug-20 14:27N 41°44' W 070°38'0 0.0
2015-Aug-20 13:24N 41°44' W 070°38'0 0.0
2015-Aug-19 05:26N 41°44' W 070°38'0 0.0
2015-Aug-19 04:32N 41°44' W 070°38'0 0.0
2015-Aug-19 03:17N 41°44' W 070°38'0 0.0
2015-Aug-19 02:32N 41°44' W 070°38'0 0.0
2015-Aug-19 01:29N 41°44' W 070°38'0 0.0
2015-Aug-19 00:32N 41°44' W 070°38'0 0.0
2015-Aug-18 23:27N 41°44' W 070°38'0 0.0
2015-Aug-18 22:31N 41°44' W 070°38'0 0.0
2015-Aug-18 21:23N 41°44' W 070°38'  

Dump ship's entire track history